sensor_id;sensor_type;location;lat;lon;timestamp;temperature;humidity
3360;DHT22;1693;49.602;11.046;2024-02-26T10:47:21;10.80;99.90
3360;DHT22;1693;49.602;11.046;2024-02-26T10:49:48;10.70;99.90
3360;DHT22;1693;49.602;11.046;2024-02-26T10:52:19;10.90;99.90
3360;DHT22;1693;49.602;11.046;2024-02-26T10:54:48;10.50;99.90
3360;DHT22;1693;49.602;11.046;2024-02-26T10:57:16;10.20;99.90
3360;DHT22;1693;49.602;11.046;2024-02-26T10:59:45;10.10;99.90
3360;DHT22;1693;49.602;11.046;2024-02-26T11:02:13;10.70;99.90
3360;DHT22;1693;49.602;11.046;2024-02-26T11:04:41;11.00;99.90
3360;DHT22;1693;49.602;11.046;2024-02-26T11:07:09;11.10;99.90
3360;DHT22;1693;49.602;11.046;2024-02-26T11:09:36;11.20;99.90
3360;DHT22;1693;49.602;11.046;2024-02-26T11:12:08;11.40;99.90
3360;DHT22;1693;49.602;11.046;2024-02-26T11:14:40;11.70;99.90
3360;DHT22;1693;49.602;11.046;2024-02-26T11:17:09;11.70;99.90
3360;DHT22;1693;49.602;11.046;2024-02-26T11:19:38;12.10;99.90
3360;DHT22;1693;49.602;11.046;2024-02-26T11:22:07;12.40;99.90
3360;DHT22;1693;49.602;11.046;2024-02-26T11:24:34;12.60;99.90
3360;DHT22;1693;49.602;11.046;2024-02-26T11:27:09;13.00;99.90
3360;DHT22;1693;49.602;11.046;2024-02-26T11:29:41;14.20;99.90
3360;DHT22;1693;49.602;11.046;2024-02-26T11:32:12;13.40;99.10
3360;DHT22;1693;49.602;11.046;2024-02-26T11:34:40;13.10;99.90
3360;DHT22;1693;49.602;11.046;2024-02-26T11:37:11;13.10;99.50
3360;DHT22;1693;49.602;11.046;2024-02-26T11:39:40;14.30;98.10
3360;DHT22;1693;49.602;11.046;2024-02-26T11:42:08;14.30;96.50
3360;DHT22;1693;49.602;11.046;2024-02-26T11:44:36;14.00;95.10
3360;DHT22;1693;49.602;11.046;2024-02-26T11:47:12;13.90;95.50
3360;DHT22;1693;49.602;11.046;2024-02-26T11:49:39;14.90;94.10
3360;DHT22;1693;49.602;11.046;2024-02-26T11:52:08;14.20;93.80
3360;DHT22;1693;49.602;11.046;2024-02-26T11:54:39;13.90;94.50
3360;DHT22;1693;49.602;11.046;2024-02-26T11:57:20;13.60;94.90
3360;DHT22;1693;49.602;11.046;2024-02-26T11:59:48;14.80;93.80
3360;DHT22;1693;49.602;11.046;2024-02-26T12:05:25;15.90;92.70
3360;DHT22;1693;49.602;11.046;2024-02-26T12:07:55;15.60;92.50
3360;DHT22;1693;49.602;11.046;2024-02-26T12:10:26;15.70;91.20
3360;DHT22;1693;49.602;11.046;2024-02-26T12:13:05;15.70;90.30
3360;DHT22;1693;49.602;11.046;2024-02-26T12:15:35;14.90;91.30
3360;DHT22;1693;49.602;11.046;2024-02-26T12:18:04;14.70;91.50
3360;DHT22;1693;49.602;11.046;2024-02-26T12:20:33;14.90;91.00
3360;DHT22;1693;49.602;11.046;2024-02-26T12:23:02;15.20;91.60
3360;DHT22;1693;49.602;11.046;2024-02-26T12:25:33;15.40;91.50
3360;DHT22;1693;49.602;11.046;2024-02-26T12:28:02;15.30;90.30
3360;DHT22;1693;49.602;11.046;2024-02-26T12:30:32;15.50;90.70
3360;DHT22;1693;49.602;11.046;2024-02-26T12:33:00;16.20;90.60
3360;DHT22;1693;49.602;11.046;2024-02-26T12:35:29;16.10;87.70
3360;DHT22;1693;49.602;11.046;2024-02-26T12:37:59;16.10;86.90
3360;DHT22;1693;49.602;11.046;2024-02-26T12:40:26;15.00;86.40
3360;DHT22;1693;49.602;11.046;2024-02-26T12:42:54;14.90;89.60
3360;DHT22;1693;49.602;11.046;2024-02-26T12:45:21;15.10;90.40
3360;DHT22;1693;49.602;11.046;2024-02-26T12:47:48;15.40;91.20
3360;DHT22;1693;49.602;11.046;2024-02-26T12:50:16;15.70;89.40
3360;DHT22;1693;49.602;11.046;2024-02-26T12:52:44;15.30;87.20
3360;DHT22;1693;49.602;11.046;2024-02-26T12:55:15;16.50;90.00
3360;DHT22;1693;49.602;11.046;2024-02-26T12:57:43;15.90;87.30
3360;DHT22;1693;49.602;11.046;2024-02-26T13:00:13;16.30;85.60
3360;DHT22;1693;49.602;11.046;2024-02-26T13:02:41;16.60;85.50
3360;DHT22;1693;49.602;11.046;2024-02-26T13:05:11;16.40;83.30
3360;DHT22;1693;49.602;11.046;2024-02-26T13:07:41;17.30;85.40
3360;DHT22;1693;49.602;11.046;2024-02-26T13:10:09;17.10;83.80
3360;DHT22;1693;49.602;11.046;2024-02-26T13:12:42;17.00;81.90
3360;DHT22;1693;49.602;11.046;2024-02-26T13:15:14;16.60;83.10
3360;DHT22;1693;49.602;11.046;2024-02-26T13:17:41;16.90;80.70
3360;DHT22;1693;49.602;11.046;2024-02-26T13:20:09;16.30;79.60
3360;DHT22;1693;49.602;11.046;2024-02-26T13:22:36;16.80;79.30
3360;DHT22;1693;49.602;11.046;2024-02-26T13:25:04;17.10;77.50
3360;DHT22;1693;49.602;11.046;2024-02-26T13:27:33;16.80;78.00
3360;DHT22;1693;49.602;11.046;2024-02-26T13:30:08;17.10;79.10
3360;DHT22;1693;49.602;11.046;2024-02-26T13:32:36;17.50;76.70
3360;DHT22;1693;49.602;11.046;2024-02-26T13:35:07;16.20;75.50
3360;DHT22;1693;49.602;11.046;2024-02-26T13:37:34;16.80;78.00
3360;DHT22;1693;49.602;11.046;2024-02-26T13:40:05;18.00;77.40
3360;DHT22;1693;49.602;11.046;2024-02-26T13:42:33;17.60;75.60
3360;DHT22;1693;49.602;11.046;2024-02-26T13:44:59;17.60;75.30
3360;DHT22;1693;49.602;11.046;2024-02-26T13:47:28;17.90;74.10
3360;DHT22;1693;49.602;11.046;2024-02-26T13:49:55;18.60;74.70
3360;DHT22;1693;49.602;11.046;2024-02-26T13:52:22;19.70;72.00
3360;DHT22;1693;49.602;11.046;2024-02-26T13:54:49;19.70;69.00
3360;DHT22;1693;49.602;11.046;2024-02-26T13:57:16;18.40;67.50
3360;DHT22;1693;49.602;11.046;2024-02-26T13:59:45;17.00;65.40
3360;DHT22;1693;49.602;11.046;2024-02-26T14:02:13;16.10;68.30
3360;DHT22;1693;49.602;11.046;2024-02-26T14:04:42;15.50;70.10
3360;DHT22;1693;49.602;11.046;2024-02-26T14:07:12;15.50;72.30
3360;DHT22;1693;49.602;11.046;2024-02-26T14:09:39;15.20;72.00
3360;DHT22;1693;49.602;11.046;2024-02-26T14:12:06;15.20;71.90
3360;DHT22;1693;49.602;11.046;2024-02-26T14:14:34;14.60;72.10
3360;DHT22;1693;49.602;11.046;2024-02-26T14:17:04;14.20;73.50
3360;DHT22;1693;49.602;11.046;2024-02-26T14:19:32;13.80;72.90
3360;DHT22;1693;49.602;11.046;2024-02-26T14:22:04;13.90;76.30
3360;DHT22;1693;49.602;11.046;2024-02-26T14:24:33;13.60;76.10
3360;DHT22;1693;49.602;11.046;2024-02-26T14:27:06;13.60;76.60
3360;DHT22;1693;49.602;11.046;2024-02-26T14:29:37;13.50;78.50
3360;DHT22;1693;49.602;11.046;2024-02-26T14:32:06;13.20;78.60
3360;DHT22;1693;49.602;11.046;2024-02-26T14:34:33;13.00;78.50
3360;DHT22;1693;49.602;11.046;2024-02-26T14:40:11;13.00;79.50
3360;DHT22;1693;49.602;11.046;2024-02-26T14:42:39;12.80;80.00
3360;DHT22;1693;49.602;11.046;2024-02-26T14:45:07;12.80;80.80
3360;DHT22;1693;49.602;11.046;2024-02-26T14:47:35;13.00;82.80
3360;DHT22;1693;49.602;11.046;2024-02-26T14:50:02;12.90;82.20
3360;DHT22;1693;49.602;11.046;2024-02-26T14:52:29;12.70;81.50
3360;DHT22;1693;49.602;11.046;2024-02-26T14:57:28;12.60;82.40
3360;DHT22;1693;49.602;11.046;2024-02-26T14:59:56;12.40;83.10
3360;DHT22;1693;49.602;11.046;2024-02-26T15:02:24;12.20;84.10
3360;DHT22;1693;49.602;11.046;2024-02-26T15:04:51;12.20;83.90
3360;DHT22;1693;49.602;11.046;2024-02-26T15:07:21;12.10;85.00
3360;DHT22;1693;49.602;11.046;2024-02-26T15:09:49;12.10;85.20
3360;DHT22;1693;49.602;11.046;2024-02-26T15:12:17;12.10;85.50
3360;DHT22;1693;49.602;11.046;2024-02-26T15:14:53;11.90;85.60
3360;DHT22;1693;49.602;11.046;2024-02-26T15:17:21;11.80;86.60
3360;DHT22;1693;49.602;11.046;2024-02-26T15:19:50;11.80;87.80
3360;DHT22;1693;49.602;11.046;2024-02-26T15:24:48;11.70;90.50
3360;DHT22;1693;49.602;11.046;2024-02-26T15:27:19;11.50;92.70
3360;DHT22;1693;49.602;11.046;2024-02-26T15:32:28;11.40;93.10
3360;DHT22;1693;49.602;11.046;2024-02-26T15:34:58;11.40;93.90
3360;DHT22;1693;49.602;11.046;2024-02-26T15:37:37;11.50;94.50
3360;DHT22;1693;49.602;11.046;2024-02-26T15:40:08;11.30;94.80
3360;DHT22;1693;49.602;11.046;2024-02-26T15:42:38;11.30;95.70
3360;DHT22;1693;49.602;11.046;2024-02-26T15:45:13;11.20;96.10
3360;DHT22;1693;49.602;11.046;2024-02-26T15:47:42;11.10;96.50
3360;DHT22;1693;49.602;11.046;2024-02-26T15:50:11;11.00;97.60
3360;DHT22;1693;49.602;11.046;2024-02-26T15:52:47;11.00;98.40
3360;DHT22;1693;49.602;11.046;2024-02-26T15:55:21;10.90;98.10
3360;DHT22;1693;49.602;11.046;2024-02-26T15:57:48;10.90;98.70
3360;DHT22;1693;49.602;11.046;2024-02-26T16:00:20;10.70;99.20
3360;DHT22;1693;49.602;11.046;2024-02-26T16:02:50;10.70;99.80
3360;DHT22;1693;49.602;11.046;2024-02-26T16:05:18;10.70;99.90
3360;DHT22;1693;49.602;11.046;2024-02-26T16:10:18;10.60;99.90
3360;DHT22;1693;49.602;11.046;2024-02-26T16:12:52;10.60;99.90
3360;DHT22;1693;49.602;11.046;2024-02-26T16:15:22;10.50;99.90
3360;DHT22;1693;49.602;11.046;2024-02-26T16:17:51;10.40;99.90
3360;DHT22;1693;49.602;11.046;2024-02-26T16:20:23;10.50;99.90
3360;DHT22;1693;49.602;11.046;2024-02-26T16:22:56;10.50;99.90
3360;DHT22;1693;49.602;11.046;2024-02-26T16:25:28;10.50;99.90
3360;DHT22;1693;49.602;11.046;2024-02-26T16:27:59;10.40;99.90
3360;DHT22;1693;49.602;11.046;2024-02-26T16:30:29;10.50;99.90
3360;DHT22;1693;49.602;11.046;2024-02-26T16:32:59;10.50;99.90
3360;DHT22;1693;49.602;11.046;2024-02-26T16:35:28;10.40;99.90
3360;DHT22;1693;49.602;11.046;2024-02-26T16:37:55;10.30;99.90
3360;DHT22;1693;49.602;11.046;2024-02-26T16:40:24;10.30;99.90
3360;DHT22;1693;49.602;11.046;2024-02-26T16:42:51;10.30;99.90
3360;DHT22;1693;49.602;11.046;2024-02-26T16:45:19;10.20;99.90
3360;DHT22;1693;49.602;11.046;2024-02-26T16:47:50;10.00;99.90
3360;DHT22;1693;49.602;11.046;2024-02-26T16:50:18;10.00;99.90
3360;DHT22;1693;49.602;11.046;2024-02-26T16:52:47;9.90;99.90
3360;DHT22;1693;49.602;11.046;2024-02-26T16:55:15;9.90;99.90
3360;DHT22;1693;49.602;11.046;2024-02-26T16:57:43;9.80;99.90
3360;DHT22;1693;49.602;11.046;2024-02-26T17:02:41;9.70;99.90
3360;DHT22;1693;49.602;11.046;2024-02-26T17:05:16;9.70;99.90
3360;DHT22;1693;49.602;11.046;2024-02-26T17:07:44;9.60;99.90
3360;DHT22;1693;49.602;11.046;2024-02-26T17:10:14;9.60;99.90
3360;DHT22;1693;49.602;11.046;2024-02-26T17:12:42;9.60;99.90
3360;DHT22;1693;49.602;11.046;2024-02-26T17:15:11;9.60;99.90
3360;DHT22;1693;49.602;11.046;2024-02-26T17:17:38;9.60;99.90
3360;DHT22;1693;49.602;11.046;2024-02-26T17:20:07;9.70;99.90
3360;DHT22;1693;49.602;11.046;2024-02-26T17:22:37;9.60;99.90
3360;DHT22;1693;49.602;11.046;2024-02-26T17:25:05;9.60;99.90
3360;DHT22;1693;49.602;11.046;2024-02-26T17:27:35;9.50;99.90
3360;DHT22;1693;49.602;11.046;2024-02-26T17:30:04;9.40;99.90
3360;DHT22;1693;49.602;11.046;2024-02-26T17:32:33;9.30;99.90
3360;DHT22;1693;49.602;11.046;2024-02-26T17:35:01;9.40;99.90
3360;DHT22;1693;49.602;11.046;2024-02-26T17:37:31;9.30;99.90
3360;DHT22;1693;49.602;11.046;2024-02-26T17:40:03;9.30;99.90
3360;DHT22;1693;49.602;11.046;2024-02-26T17:42:32;9.30;99.90
3360;DHT22;1693;49.602;11.046;2024-02-26T17:45:03;9.30;99.90
3360;DHT22;1693;49.602;11.046;2024-02-26T17:47:31;9.20;99.90
3360;DHT22;1693;49.602;11.046;2024-02-26T17:49:58;9.20;99.90
3360;DHT22;1693;49.602;11.046;2024-02-26T17:52:26;9.20;99.90
3360;DHT22;1693;49.602;11.046;2024-02-26T17:54:55;9.10;99.90
3360;DHT22;1693;49.602;11.046;2024-02-26T17:57:26;9.10;99.90
3360;DHT22;1693;49.602;11.046;2024-02-26T17:59:53;9.10;99.90
3360;DHT22;1693;49.602;11.046;2024-02-26T18:02:20;9.00;99.90
3360;DHT22;1693;49.602;11.046;2024-02-26T18:04:50;9.00;99.90
3360;DHT22;1693;49.602;11.046;2024-02-26T18:09:44;8.90;99.90
3360;DHT22;1693;49.602;11.046;2024-02-26T18:12:11;8.90;99.90
3360;DHT22;1693;49.602;11.046;2024-02-26T18:14:45;8.90;99.90
3360;DHT22;1693;49.602;11.046;2024-02-26T18:17:12;8.80;99.90
3360;DHT22;1693;49.602;11.046;2024-02-26T18:19:40;8.80;99.90
3360;DHT22;1693;49.602;11.046;2024-02-26T18:22:07;8.80;99.90
3360;DHT22;1693;49.602;11.046;2024-02-26T18:24:34;8.80;99.90
3360;DHT22;1693;49.602;11.046;2024-02-26T18:27:01;8.70;99.90
3360;DHT22;1693;49.602;11.046;2024-02-26T18:29:28;8.70;99.90
3360;DHT22;1693;49.602;11.046;2024-02-26T18:31:56;8.60;99.90
3360;DHT22;1693;49.602;11.046;2024-02-26T18:34:23;8.60;99.90
3360;DHT22;1693;49.602;11.046;2024-02-26T18:36:51;8.60;99.90
3360;DHT22;1693;49.602;11.046;2024-02-26T18:41:45;8.50;99.90
3360;DHT22;1693;49.602;11.046;2024-02-26T18:44:12;8.50;99.90
3360;DHT22;1693;49.602;11.046;2024-02-26T18:46:43;8.50;99.90
3360;DHT22;1693;49.602;11.046;2024-02-26T18:49:12;8.50;99.90
3360;DHT22;1693;49.602;11.046;2024-02-26T18:51:39;8.50;99.90
3360;DHT22;1693;49.602;11.046;2024-02-26T18:54:06;8.50;99.90
3360;DHT22;1693;49.602;11.046;2024-02-26T18:56:33;8.50;99.90
3360;DHT22;1693;49.602;11.046;2024-02-26T18:59:01;8.50;99.90
3360;DHT22;1693;49.602;11.046;2024-02-26T19:01:30;8.50;99.90
3360;DHT22;1693;49.602;11.046;2024-02-26T19:04:04;8.50;99.90
3360;DHT22;1693;49.602;11.046;2024-02-26T19:06:48;8.50;99.90
3360;DHT22;1693;49.602;11.046;2024-02-26T19:09:15;8.30;99.90
3360;DHT22;1693;49.602;11.046;2024-02-26T19:11:45;8.30;99.90
3360;DHT22;1693;49.602;11.046;2024-02-26T19:14:14;8.40;99.90
3360;DHT22;1693;49.602;11.046;2024-02-26T19:16:41;8.20;99.90
3360;DHT22;1693;49.602;11.046;2024-02-26T19:19:08;8.10;99.90
3360;DHT22;1693;49.602;11.046;2024-02-26T19:21:35;8.10;99.90
3360;DHT22;1693;49.602;11.046;2024-02-26T19:24:04;8.00;99.90
3360;DHT22;1693;49.602;11.046;2024-02-26T19:26:32;8.00;99.90
3360;DHT22;1693;49.602;11.046;2024-02-26T19:29:00;8.10;99.90
3360;DHT22;1693;49.602;11.046;2024-02-26T19:31:28;8.10;99.90
3360;DHT22;1693;49.602;11.046;2024-02-26T19:33:56;8.10;99.90
3360;DHT22;1693;49.602;11.046;2024-02-26T19:36:25;8.10;99.90
3360;DHT22;1693;49.602;11.046;2024-02-26T19:38:52;8.00;99.90
3360;DHT22;1693;49.602;11.046;2024-02-26T19:41:21;8.10;99.90
3360;DHT22;1693;49.602;11.046;2024-02-26T19:43:49;8.00;99.90
3360;DHT22;1693;49.602;11.046;2024-02-26T19:46:16;8.20;99.90
3360;DHT22;1693;49.602;11.046;2024-02-26T19:48:43;8.10;99.90
3360;DHT22;1693;49.602;11.046;2024-02-26T19:51:15;8.10;99.90
3360;DHT22;1693;49.602;11.046;2024-02-26T19:53:43;7.90;99.90
3360;DHT22;1693;49.602;11.046;2024-02-26T19:56:12;8.10;99.90
3360;DHT22;1693;49.602;11.046;2024-02-26T19:58:42;8.10;99.90
3360;DHT22;1693;49.602;11.046;2024-02-26T20:01:10;8.00;99.90
3360;DHT22;1693;49.602;11.046;2024-02-26T20:03:39;7.90;99.90
3360;DHT22;1693;49.602;11.046;2024-02-26T20:06:08;7.80;99.90
3360;DHT22;1693;49.602;11.046;2024-02-26T20:08:35;7.70;99.90
3360;DHT22;1693;49.602;11.046;2024-02-26T20:11:03;7.70;99.90
3360;DHT22;1693;49.602;11.046;2024-02-26T20:13:31;7.70;99.90
3360;DHT22;1693;49.602;11.046;2024-02-26T20:15:59;7.60;99.90
3360;DHT22;1693;49.602;11.046;2024-02-26T20:18:27;7.60;99.90
